Time;durP1;ratioP1;P1;durP2;ratioP2;P2;SDS_P1;SDS_P2;PMS_P1;PMS_P2;Temp;Humidity;BMP_temperature;BMP_pressure;BME280_temperature;BME280_humidity;BME280_pressure;Samples;Min_cycle;Max_cycle;Signal;HPM_P1;HPM_P2
2022/12/27 00:02:19;;;;;;;15.88;4.93;;;;;;;3.41;100.00;102045.78;4990971;28;20057;-64
2022/12/27 00:04:46;;;;;;;13.88;4.47;;;;;;;3.39;100.00;102051.03;4986348;28;20665;-64
2022/12/27 00:07:13;;;;;;;10.48;4.03;;;;;;;3.41;100.00;102049.22;4984921;28;20050;-63
2022/12/27 00:09:39;;;;;;;9.45;3.95;;;;;;;3.34;100.00;102045.22;4989871;28;20951;-64
2022/12/27 00:12:06;;;;;;;14.38;3.53;;;;;;;3.40;100.00;102046.69;4985826;28;20050;-64
2022/12/27 00:14:32;;;;;;;10.65;4.07;;;;;;;3.39;100.00;102053.63;4997770;28;20042;-64
2022/12/27 00:16:59;;;;;;;8.32;4.00;;;;;;;3.42;100.00;102060.44;4990069;28;20574;-65
2022/12/27 00:19:25;;;;;;;16.27;4.10;;;;;;;3.42;100.00;102052.66;4972371;28;20055;-64
2022/12/27 00:21:53;;;;;;;7.88;3.35;;;;;;;3.44;100.00;102059.44;4985507;28;20570;-64
2022/12/27 00:24:19;;;;;;;14.18;4.43;;;;;;;3.42;100.00;102044.88;4991409;28;20540;-63
2022/12/27 00:26:45;;;;;;;11.02;4.15;;;;;;;3.39;100.00;102052.78;4991308;28;20057;-65
2022/12/27 00:29:12;;;;;;;9.50;3.85;;;;;;;3.42;100.00;102055.25;4982579;28;20050;-63
2022/12/27 00:31:39;;;;;;;13.05;3.97;;;;;;;3.44;100.00;102069.81;4986263;28;20050;-64
2022/12/27 00:34:06;;;;;;;16.77;4.55;;;;;;;3.43;100.00;102073.34;4985344;28;20053;-64
2022/12/27 00:36:33;;;;;;;12.27;3.72;;;;;;;3.44;100.00;102071.59;4985134;28;20124;-65
2022/12/27 00:39:00;;;;;;;11.10;4.90;;;;;;;3.48;100.00;102086.09;4983931;28;20058;-65
2022/12/27 00:41:27;;;;;;;12.30;4.28;;;;;;;3.44;100.00;102087.16;4987019;28;20049;-65
2022/12/27 00:43:53;;;;;;;13.35;4.93;;;;;;;3.40;100.00;102086.44;4985679;28;20134;-63
2022/12/27 00:46:20;;;;;;;11.80;4.40;;;;;;;3.40;100.00;102085.59;4985202;28;20137;-63
2022/12/27 00:48:46;;;;;;;12.00;4.05;;;;;;;3.42;100.00;102086.38;4988734;28;20108;-63
2022/12/27 00:51:21;;;;;;;15.95;3.95;;;;;;;3.43;100.00;102081.13;4984478;28;20133;-63
2022/12/27 00:53:49;;;;;;;10.20;3.90;;;;;;;3.39;100.00;102076.97;4980304;28;20053;-63
2022/12/27 00:56:22;;;;;;;11.57;4.43;;;;;;;3.40;100.00;102088.19;4989138;28;20077;-64
2022/12/27 00:58:59;;;;;;;8.82;3.83;;;;;;;3.42;100.00;102081.19;4980777;28;20060;-64
2022/12/27 01:01:27;;;;;;;10.73;3.65;;;;;;;3.42;100.00;102084.63;4989904;28;20084;-63
2022/12/27 01:03:55;;;;;;;;;;;;;;;3.41;100.00;102084.69;4980936;28;20055;-64
2022/12/27 01:06:27;;;;;;;10.88;4.13;;;;;;;3.38;100.00;102087.44;4990039;28;19926;-65
2022/12/27 01:08:55;;;;;;;9.68;3.70;;;;;;;3.32;100.00;102097.16;4982517;28;20050;-65
2022/12/27 01:11:21;;;;;;;9.43;4.13;;;;;;;3.30;100.00;102096.38;4984394;28;20062;-65
2022/12/27 01:13:48;;;;;;;9.05;3.70;;;;;;;3.25;100.00;102100.91;4984560;28;20042;-65
2022/12/27 01:16:17;;;;;;;11.75;4.32;;;;;;;3.30;100.00;102098.13;4985848;28;20053;-66
2022/12/27 01:18:44;;;;;;;9.05;4.57;;;;;;;3.24;100.00;102101.84;4988675;28;20499;-64
2022/12/27 01:21:13;;;;;;;15.00;5.10;;;;;;;3.22;100.00;102108.84;4979913;28;20054;-66
2022/12/27 01:23:40;;;;;;;11.90;4.72;;;;;;;3.22;100.00;102108.84;4999196;28;20129;-65
2022/12/27 01:26:11;;;;;;;9.85;4.05;;;;;;;3.20;100.00;102115.03;4983728;28;20126;-65
2022/12/27 01:28:38;;;;;;;15.60;5.70;;;;;;;3.21;100.00;102109.75;4987895;28;20049;-65
2022/12/27 01:31:11;;;;;;;13.93;3.97;;;;;;;3.24;100.00;102121.75;4995182;28;20054;-65
2022/12/27 01:33:37;;;;;;;10.73;4.03;;;;;;;3.19;100.00;102118.50;4975199;28;20464;-66
2022/12/27 01:36:12;;;;;;;10.80;4.45;;;;;;;3.17;100.00;102123.75;4987328;28;20042;-65
2022/12/27 01:38:38;;;;;;;11.35;4.80;;;;;;;3.15;100.00;102126.41;4986358;28;20054;-65
2022/12/27 01:42:50;;;;;;;11.88;4.68;;;;;;;3.14;100.00;102134.28;4989933;28;20058;-65
2022/12/27 01:43:51;;;;;;;14.18;4.63;;;;;;;3.14;100.00;102129.09;4977907;28;21130;-65
2022/12/27 01:46:17;;;;;;;8.35;3.88;;;;;;;3.13;100.00;102135.16;4985347;28;20525;-65
2022/12/27 01:48:44;;;;;;;12.23;5.82;;;;;;;3.14;100.00;102131.69;4983168;28;20145;-64
2022/12/27 01:51:11;;;;;;;10.25;4.00;;;;;;;3.14;100.00;102136.88;4973762;28;20050;-65
2022/12/27 01:53:45;;;;;;;17.63;4.70;;;;;;;3.19;100.00;102131.47;4979500;28;20057;-65
2022/12/27 01:56:20;;;;;;;12.18;4.93;;;;;;;3.15;100.00;102134.19;4984128;28;20050;-66
2022/12/27 01:58:58;;;;;;;11.43;4.75;;;;;;;3.13;100.00;102135.16;4991082;28;20054;-65
2022/12/27 02:01:46;;;;;;;16.63;5.50;;;;;;;3.15;100.00;102134.19;4984318;28;20054;-64
2022/12/27 02:04:19;;;;;;;12.07;4.95;;;;;;;3.16;100.00;102150.59;4991975;28;20113;-65
2022/12/27 02:06:46;;;;;;;15.20;4.45;;;;;;;3.16;100.00;102151.44;4975901;28;20508;-64
2022/12/27 02:09:34;;;;;;;10.93;4.13;;;;;;;3.17;100.00;102173.88;4987972;28;20052;-65
2022/12/27 02:12:04;;;;;;;9.90;4.18;;;;;;;3.20;100.00;102165.13;4991382;28;20046;-65
2022/12/27 02:14:38;;;;;;;11.23;4.90;;;;;;;3.23;100.00;102169.31;4978134;28;20412;-65
2022/12/27 02:17:09;;;;;;;10.88;4.85;;;;;;;3.29;100.00;102172.53;4985765;28;20088;-64
2022/12/27 02:19:56;;;;;;;13.57;5.00;;;;;;;3.33;100.00;102180.97;4986445;28;20148;-64
2022/12/27 02:25:50;;;;;;;11.35;5.05;;;;;;;3.50;100.00;102211.41;4983408;28;20717;-65
2022/12/27 02:28:32;;;;;;;12.88;4.10;;;;;;;3.58;100.00;102217.09;4988140;28;20046;-65
2022/12/27 02:31:06;;;;;;;13.15;4.30;;;;;;;3.67;100.00;102215.88;4983297;28;20097;-64
2022/12/27 02:33:37;;;;;;;8.55;4.28;;;;;;;3.69;100.00;102211.44;4988783;28;20105;-65
2022/12/27 02:36:09;;;;;;;13.13;5.28;;;;;;;3.72;100.00;102196.59;4981237;28;20050;-64
2022/12/27 02:38:39;;;;;;;13.52;5.75;;;;;;;3.75;100.00;102180.84;4992359;28;20064;-64
2022/12/27 02:53:03;;;;;;;13.73;4.95;;;;;;;3.76;100.00;102173.91;4988024;28;20396;-64
2022/12/27 02:58:38;;;;;;;11.05;3.80;;;;;;;3.60;100.00;102175.50;4975426;28;20061;-66
2022/12/27 03:04:14;;;;;;;14.32;3.83;;;;;;;3.62;100.00;102179.72;4988743;28;20403;-67
2022/12/27 03:06:55;;;;;;;11.52;3.95;;;;;;;3.51;100.00;102184.56;4981300;28;20058;-66
2022/12/27 03:18:17;;;;;;;10.63;3.83;;;;;;;3.57;100.00;102163.53;4976981;28;20050;-66
2022/12/27 03:26:18;;;;;;;11.65;3.97;;;;;;;3.53;100.00;102187.94;4984143;28;20104;-66
2022/12/27 03:34:31;;;;;;;9.73;3.60;;;;;;;3.56;100.00;102186.00;4971053;28;20430;-65
2022/12/27 03:40:20;;;;;;;8.98;4.05;;;;;;;3.62;100.00;102192.69;4974530;28;20064;-65
2022/12/27 03:43:12;;;;;;;10.55;4.38;;;;;;;3.69;100.00;102190.69;4982537;28;20054;-65
2022/12/27 03:48:50;;;;;;;11.85;4.57;;;;;;;3.78;100.00;102186.81;4982090;28;20160;-64
2022/12/27 03:51:22;;;;;;;12.43;4.80;;;;;;;3.75;100.00;102186.06;4981781;28;20086;-65
2022/12/27 03:53:53;;;;;;;13.60;4.78;;;;;;;3.73;100.00;102181.84;4983583;28;20058;-66
2022/12/27 03:56:20;;;;;;;13.35;4.93;;;;;;;3.69;100.00;102195.88;4977785;28;20050;-66
2022/12/27 03:58:46;;;;;;;13.70;4.82;;;;;;;3.68;100.00;102207.97;4979378;28;20054;-66
2022/12/27 04:01:13;;;;;;;12.27;4.70;;;;;;;3.63;100.00;102202.16;4987139;28;20054;-65
2022/12/27 04:03:39;;;;;;;12.15;4.55;;;;;;;3.61;100.00;102201.41;4981221;28;20486;-65
2022/12/27 04:06:06;;;;;;;6.57;3.78;;;;;;;3.59;100.00;102200.63;4989869;28;20042;-64
2022/12/27 04:36:01;;;;;;;13.50;5.00;;;;;;;3.38;100.00;102222.31;4986894;28;20622;-64
2022/12/27 04:38:31;;;;;;;15.88;4.75;;;;;;;3.35;100.00;102213.75;4978055;28;20070;-64
2022/12/27 04:55:15;;;;;;;15.68;4.28;;;;;;;3.35;100.00;102224.13;4981528;28;20046;-64
2022/12/27 04:57:41;;;;;;;13.50;3.75;;;;;;;3.33;100.00;102219.88;4988895;28;20410;-64
2022/12/27 05:02:53;;;;;;;12.65;4.30;;;;;;;3.30;100.00;102243.38;4972970;28;20065;-65
2022/12/27 05:05:21;;;;;;;10.77;4.50;;;;;;;3.33;100.00;102235.44;4984344;28;20469;-65
2022/12/27 05:16:03;;;;;;;13.50;4.60;;;;;;;3.29;100.00;102236.50;4991953;28;20412;-65
2022/12/27 05:18:30;;;;;;;13.70;4.20;;;;;;;3.27;100.00;102233.13;4974530;28;20054;-65
2022/12/27 05:21:04;;;;;;;15.80;4.65;;;;;;;3.31;100.00;102237.25;4992601;28;20062;-64
2022/12/27 05:26:21;;;;;;;13.82;4.32;;;;;;;3.31;100.00;102243.31;4986726;28;20049;-64
2022/12/27 05:28:51;;;;;;;9.55;4.32;;;;;;;3.33;100.00;102253.59;4988691;28;20060;-63
2022/12/27 05:31:18;;;;;;;14.18;4.22;;;;;;;3.25;100.00;102253.94;4966236;28;20046;-64
2022/12/27 05:33:45;;;;;;;10.88;3.83;;;;;;;3.17;100.00;102259.47;4987318;28;20064;-65
2022/12/27 05:36:12;;;;;;;13.73;4.03;;;;;;;3.18;100.00;102262.88;4987523;28;20067;-65
2022/12/27 05:38:38;;;;;;;10.48;4.07;;;;;;;3.22;100.00;102256.66;4994699;28;20411;-64
2022/12/27 05:41:05;;;;;;;16.40;4.45;;;;;;;3.24;100.00;102264.38;4984381;28;20057;-64
2022/12/27 05:43:31;;;;;;;9.35;3.92;;;;;;;3.25;100.00;102266.88;4991208;28;20046;-64
2022/12/27 05:46:07;;;;;;;10.23;3.90;;;;;;;3.30;100.00;102270.16;4983090;28;20077;-64
2022/12/27 05:48:34;;;;;;;12.02;3.92;;;;;;;3.31;100.00;102269.25;4981780;28;20162;-65
2022/12/27 05:51:10;;;;;;;10.05;3.70;;;;;;;3.31;100.00;102273.56;4989744;28;20050;-65
2022/12/27 05:53:37;;;;;;;10.38;3.75;;;;;;;3.28;100.00;102284.94;4984082;28;20551;-64
2022/12/27 05:56:04;;;;;;;16.75;4.28;;;;;;;3.29;100.00;102280.59;4990389;28;20069;-65
2022/12/27 05:58:31;;;;;;;13.85;3.50;;;;;;;3.25;100.00;102284.22;4982965;28;20814;-65
2022/12/27 06:00:59;;;;;;;12.05;4.20;;;;;;;3.25;100.00;102277.25;4980316;28;20499;-64
2022/12/27 06:03:26;;;;;;;17.38;3.40;;;;;;;3.25;100.00;102287.63;4984348;28;20050;-64
2022/12/27 06:05:59;;;;;;;12.10;3.38;;;;;;;3.30;100.00;102287.47;4987135;28;20476;-65
2022/12/27 06:08:26;;;;;;;10.05;3.92;;;;;;;3.28;100.00;102287.53;4989362;28;20050;-65
2022/12/27 06:11:02;;;;;;;9.40;3.72;;;;;;;3.33;100.00;102289.91;4979523;28;20137;-64
2022/12/27 06:13:28;;;;;;;16.48;4.30;;;;;;;3.30;100.00;102287.47;4983420;28;20055;-64
2022/12/27 06:15:57;;;;;;;9.93;3.83;;;;;;;3.34;100.00;102292.47;4976957;28;20519;-65
2022/12/27 06:18:24;;;;;;;16.83;3.65;;;;;;;3.33;100.00;102305.47;4982462;28;20280;-65
2022/12/27 06:20:50;;;;;;;11.38;3.28;;;;;;;3.34;100.00;102302.00;4985887;28;20046;-64
2022/12/27 06:23:16;;;;;;;12.68;3.55;;;;;;;3.35;100.00;102316.63;4981749;28;20470;-64
2022/12/27 06:25:43;;;;;;;10.50;3.30;;;;;;;3.34;100.00;102308.03;4988572;28;20054;-65
2022/12/27 06:28:09;;;;;;;11.30;3.10;;;;;;;3.35;100.00;102312.31;4981018;28;20081;-65
2022/12/27 06:30:36;;;;;;;12.82;3.15;;;;;;;3.35;100.00;102312.31;4983879;28;20068;-65
2022/12/27 06:33:02;;;;;;;9.40;3.00;;;;;;;3.32;100.00;102309.00;4983260;28;20297;-64
2022/12/27 06:35:29;;;;;;;10.85;3.03;;;;;;;3.32;100.00;102304.66;4993818;28;20054;-65
2022/12/27 06:37:55;;;;;;;10.57;3.42;;;;;;;3.31;100.00;102300.38;4988617;28;20065;-64
2022/12/27 06:40:21;;;;;;;9.63;2.60;;;;;;;3.33;100.00;102310.66;4983449;28;20054;-65
2022/12/27 06:42:48;;;;;;;10.60;3.30;;;;;;;3.30;100.00;102305.63;4978946;28;20062;-64
2022/12/27 06:45:14;;;;;;;15.07;3.70;;;;;;;3.30;100.00;102306.47;4986741;28;20052;-65
2022/12/27 06:47:40;;;;;;;11.20;3.65;;;;;;;3.27;100.00;102309.16;4985719;28;20050;-64
2022/12/27 06:50:07;;;;;;;9.05;3.30;;;;;;;3.32;100.00;102303.81;4983534;28;20048;-64
2022/12/27 06:52:34;;;;;;;8.20;3.25;;;;;;;3.30;100.00;102309.06;4984129;28;20053;-65
2022/12/27 06:55:00;;;;;;;15.23;4.10;;;;;;;3.31;100.00;102312.47;4968180;28;20125;-65
2022/12/27 06:57:26;;;;;;;16.83;3.90;;;;;;;3.29;100.00;102309.97;4974865;28;20050;-66
2022/12/27 06:59:53;;;;;;;15.85;4.45;;;;;;;3.29;100.00;102319.47;4985717;28;20221;-65
2022/12/27 07:02:19;;;;;;;11.25;3.80;;;;;;;3.30;100.00;102314.25;4982980;28;20141;-64
2022/12/27 07:04:46;;;;;;;19.48;3.75;;;;;;;3.31;100.00;102325.44;4969861;28;20097;-65
2022/12/27 07:07:12;;;;;;;11.35;3.00;;;;;;;3.28;100.00;102318.66;4989293;28;20056;-64
2022/12/27 07:09:41;;;;;;;10.30;3.92;;;;;;;3.30;100.00;102327.22;4976135;28;20418;-65
2022/12/27 07:12:07;;;;;;;11.27;3.47;;;;;;;3.30;100.00;102335.00;4986058;28;20337;-65
2022/12/27 07:14:34;;;;;;;12.13;3.38;;;;;;;3.30;100.00;102334.16;4978706;28;20062;-65
2022/12/27 07:17:00;;;;;;;8.75;2.95;;;;;;;3.31;100.00;102338.41;4985362;28;20050;-65
2022/12/27 07:19:27;;;;;;;11.98;3.83;;;;;;;3.29;100.00;102343.69;4981214;28;20091;-65
2022/12/27 07:21:53;;;;;;;13.57;4.25;;;;;;;3.29;100.00;102337.63;4980565;28;20058;-65
2022/12/27 07:24:19;;;;;;;13.30;3.28;;;;;;;3.28;100.00;102335.97;4977868;28;20054;-64
2022/12/27 07:26:46;;;;;;;13.43;2.90;;;;;;;3.32;100.00;102340.13;4977335;28;20062;-64
2022/12/27 07:29:12;;;;;;;12.05;2.97;;;;;;;3.31;100.00;102348.78;4984836;28;20054;-64
2022/12/27 07:31:39;;;;;;;9.65;3.10;;;;;;;3.31;100.00;102346.19;4981632;28;20829;-65
2022/12/27 07:34:06;;;;;;;9.45;3.35;;;;;;;3.31;100.00;102352.25;4986341;28;20454;-64
2022/12/27 07:36:36;;;;;;;11.65;3.15;;;;;;;3.34;100.00;102352.13;4984761;28;20463;-66
2022/12/27 07:39:03;;;;;;;15.73;3.72;;;;;;;3.34;100.00;102356.47;4980719;28;20050;-65
2022/12/27 07:41:29;;;;;;;10.10;3.13;;;;;;;3.31;100.00;102364.34;4997827;28;20081;-64
2022/12/27 07:43:56;;;;;;;9.32;4.05;;;;;;;3.29;100.00;102364.44;4984615;28;20060;-65
2022/12/27 07:46:24;;;;;;;11.05;3.88;;;;;;;3.35;100.00;102361.59;4991750;28;20108;-65
2022/12/27 07:48:55;;;;;;;7.55;3.53;;;;;;;3.35;100.00;102360.72;4979826;28;20054;-64
2022/12/27 07:51:24;;;;;;;11.55;3.67;;;;;;;3.33;100.00;102362.53;4988154;28;20054;-64
2022/12/27 07:53:50;;;;;;;18.48;4.93;;;;;;;3.31;100.00;102369.53;4982313;28;20058;-64
2022/12/27 07:56:20;;;;;;;10.00;4.15;;;;;;;3.28;100.00;102365.34;4978574;28;20104;-65
2022/12/27 07:58:53;;;;;;;15.32;5.18;;;;;;;3.29;100.00;102377.41;4986887;28;20105;-64
2022/12/27 08:01:21;;;;;;;16.13;5.38;;;;;;;3.27;100.00;102386.13;4981055;28;20487;-65
2022/12/27 08:03:48;;;;;;;15.50;4.70;;;;;;;3.25;100.00;102385.34;4987530;28;20410;-65
2022/12/27 08:06:28;;;;;;;11.75;4.75;;;;;;;3.33;100.00;102388.47;4982195;28;20084;-66
2022/12/27 08:08:57;;;;;;;19.88;5.45;;;;;;;3.29;100.00;102394.69;4986215;28;20046;-65
2022/12/27 08:11:27;;;;;;;20.27;5.60;;;;;;;3.27;100.00;102402.53;4982167;28;20164;-65
2022/12/27 08:13:53;;;;;;;9.88;4.50;;;;;;;3.26;100.00;102406.03;4982573;28;20064;-64
2022/12/27 08:16:24;;;;;;;12.45;4.57;;;;;;;3.31;100.00;102408.44;4988256;28;20053;-65
2022/12/27 08:18:52;;;;;;;15.20;4.57;;;;;;;3.31;100.00;102405.84;4984182;28;20060;-65
2022/12/27 08:21:18;;;;;;;20.90;4.85;;;;;;;3.30;100.00;102405.03;4986623;28;20486;-65
2022/12/27 08:23:44;;;;;;;14.00;5.00;;;;;;;3.35;100.00;102412.59;4976971;28;20061;-66
2022/12/27 08:26:11;;;;;;;12.27;4.60;;;;;;;3.34;100.00;102411.78;4970776;28;20157;-64
2022/12/27 08:28:38;;;;;;;12.80;4.78;;;;;;;3.38;100.00;102403.88;4984565;28;20419;-64
2022/12/27 08:31:10;;;;;;;13.25;4.65;;;;;;;3.41;100.00;102412.41;4988890;28;20046;-65
2022/12/27 08:33:37;;;;;;;14.43;5.22;;;;;;;3.43;100.00;102408.00;4984614;28;20054;-64
2022/12/27 08:36:05;;;;;;;13.75;5.28;;;;;;;3.45;100.00;102410.50;4975772;28;20046;-65
2022/12/27 08:38:53;;;;;;;16.80;5.15;;;;;;;3.48;100.00;102407.78;4985364;28;20062;-65
2022/12/27 08:41:21;;;;;;;15.93;5.90;;;;;;;3.46;100.00;102414.78;4980108;28;20494;-64
2022/12/27 08:43:47;;;;;;;15.32;5.25;;;;;;;3.44;100.00;102420.03;4988284;28;20080;-65
2022/12/27 08:46:14;;;;;;;14.88;5.60;;;;;;;3.43;100.00;102433.06;4974767;28;20054;-66
2022/12/27 08:48:40;;;;;;;15.05;5.85;;;;;;;3.46;100.00;102433.78;4982582;28;20141;-66
2022/12/27 08:51:07;;;;;;;11.93;5.22;;;;;;;3.52;100.00;102430.13;4982728;28;20057;-64
2022/12/27 08:53:39;;;;;;;15.73;5.50;;;;;;;3.49;100.00;102431.09;4979953;28;20050;-65
2022/12/27 08:56:05;;;;;;;19.48;6.55;;;;;;;3.48;100.00;102425.94;4986991;28;20046;-65
2022/12/27 08:58:32;;;;;;;13.60;5.00;;;;;;;3.47;100.00;102426.84;4982013;28;20062;-65
2022/12/27 09:01:09;;;;;;;11.30;5.25;;;;;;;3.52;100.00;102417.97;4985587;28;20062;-64
2022/12/27 09:03:36;;;;;;;11.98;4.72;;;;;;;3.50;100.00;102424.97;4975890;28;20768;-65
2022/12/27 09:06:32;;;;;;;15.10;5.63;;;;;;;3.52;100.00;102398.97;4980225;28;20058;-65
2022/12/27 09:09:00;;;;;;;13.70;4.88;;;;;;;3.53;100.00;102409.31;4964136;28;20471;-64
2022/12/27 09:11:32;;;;;;;14.65;4.47;;;;;;;3.59;100.00;102412.53;4979926;28;20054;-65
2022/12/27 09:14:02;;;;;;;14.27;4.60;;;;;;;3.57;100.00;102415.22;4981569;28;20492;-64
2022/12/27 09:16:29;;;;;;;16.00;5.45;;;;;;;3.52;100.00;102415.38;4981382;28;20391;-64
2022/12/27 09:18:57;;;;;;;13.98;5.20;;;;;;;3.56;100.00;102410.91;4970182;28;20439;-64
2022/12/27 09:21:26;;;;;;;;;;;;;;;3.62;100.00;102415.03;4973745;28;20061;-64
2022/12/27 09:23:53;;;;;;;11.45;5.75;;;;;;;3.62;100.00;102415.84;4984189;28;19980;-64
2022/12/27 09:26:25;;;;;;;14.02;5.68;;;;;;;3.65;100.00;102422.69;4984744;28;20646;-64
2022/12/27 09:28:53;;;;;;;14.27;5.18;;;;;;;3.58;100.00;102432.47;4982075;28;20092;-64
2022/12/27 09:31:21;;;;;;;22.52;5.47;;;;;;;3.64;100.00;102427.00;4986079;28;20050;-65
2022/12/27 09:33:48;;;;;;;12.07;5.10;;;;;;;3.67;100.00;102439.88;4957766;28;20058;-65
2022/12/27 09:36:17;;;;;;;20.55;6.03;;;;;;;3.69;100.00;102438.06;4982772;28;20061;-66
2022/12/27 09:38:44;;;;;;;13.00;5.30;;;;;;;3.76;100.00;102436.06;4983004;28;20518;-65
2022/12/27 09:41:21;;;;;;;11.60;4.70;;;;;;;3.80;100.00;102436.78;4981077;28;20061;-65
2022/12/27 09:44:25;;;;;;;13.55;4.90;;;;;;;3.88;100.00;102430.38;4985537;28;20423;-64
2022/12/27 09:47:00;;;;;;;12.38;5.10;;;;;;;3.89;100.00;102432.06;4974228;28;20078;-64
2022/12/27 09:49:32;;;;;;;14.02;5.75;;;;;;;3.90;100.00;102435.47;4991577;28;20069;-66
2022/12/27 09:52:09;;;;;;;11.32;4.88;;;;;;;3.92;100.00;102441.47;4979459;28;20134;-64
2022/12/27 09:54:39;;;;;;;11.57;5.77;;;;;;;3.93;100.00;102448.34;4973620;28;20525;-64
2022/12/27 09:57:16;;;;;;;12.93;5.07;;;;;;;3.96;100.00;102446.47;4978566;28;20483;-64
2022/12/27 09:59:50;;;;;;;10.02;4.60;;;;;;;4.01;100.00;102448.03;4978675;28;20061;-65
2022/12/27 10:02:24;;;;;;;15.05;5.43;;;;;;;4.01;100.00;102446.28;4972801;28;21200;-65
2022/12/27 10:04:53;;;;;;;8.48;5.03;;;;;;;3.99;100.00;102448.09;4984108;28;20054;-66
2022/12/27 10:07:57;;;;;;;13.82;5.45;;;;;;;4.09;100.00;102445.97;4990688;28;20053;-66
2022/12/27 10:10:41;;;;;;;17.17;5.68;;;;;;;4.10;100.00;102453.69;4985941;28;20125;-65
2022/12/27 10:13:52;;;;;;;11.27;5.18;;;;;;;4.13;100.00;102461.34;4983038;28;20125;-65
2022/12/27 10:16:24;;;;;;;14.88;6.40;;;;;;;4.09;100.00;102458.94;4899876;29;20052;-65
2022/12/27 10:19:19;;;;;;;16.40;6.00;;;;;;;4.15;100.00;102463.88;4906390;29;20142;-64
2022/12/27 10:21:55;;;;;;;9.45;6.32;;;;;;;4.24;100.00;102463.50;4903041;29;20712;-65
2022/12/27 10:24:32;;;;;;;12.07;6.40;;;;;;;4.33;100.00;102468.31;4909497;29;20050;-66
2022/12/27 10:26:58;;;;;;;16.55;7.53;;;;;;;4.27;100.00;102473.78;4901823;29;20124;-65
2022/12/27 10:29:26;;;;;;;18.50;8.98;;;;;;;4.33;100.00;102470.91;4903775;29;20052;-63
2022/12/27 10:31:53;;;;;;;16.90;8.95;;;;;;;4.41;100.00;102472.31;4897448;29;20797;-63
2022/12/27 10:34:23;;;;;;;16.15;7.78;;;;;;;4.38;100.00;102460.31;4908669;29;20048;-63
2022/12/27 10:36:52;;;;;;;14.23;8.07;;;;;;;4.42;100.00;102456.66;4902872;29;20067;-65
2022/12/27 10:39:31;;;;;;;17.52;7.68;;;;;;;4.54;100.00;102450.94;4908277;29;20099;-64
2022/12/27 10:42:17;;;;;;;14.85;7.50;;;;;;;4.59;100.00;102457.69;4891639;29;20103;-65
2022/12/27 10:44:45;;;;;;;14.82;6.50;;;;;;;4.58;100.00;102462.03;4894803;29;20480;-65
2022/12/27 10:47:12;;;;;;;15.80;8.20;;;;;;;4.61;100.00;102458.47;4905040;29;20052;-64
2022/12/27 10:49:41;;;;;;;17.83;7.35;;;;;;;4.69;100.00;102444.22;4916213;28;20051;-65
2022/12/27 10:52:22;;;;;;;12.75;7.03;;;;;;;4.78;100.00;102449.91;4988504;28;20078;-64
2022/12/27 10:54:52;;;;;;;17.08;6.65;;;;;;;4.81;100.00;102445.44;4981747;28;20129;-65
2022/12/27 10:57:32;;;;;;;12.25;7.20;;;;;;;4.85;100.00;102438.34;4965945;28;20887;-66
2022/12/27 11:00:17;;;;;;;13.80;7.13;;;;;;;4.91;100.00;102438.88;4977809;28;20054;-65
2022/12/27 11:03:02;;;;;;;14.02;6.63;;;;;;;4.95;100.00;102448.22;4985893;28;20069;-66
2022/12/27 11:05:31;;;;;;;16.02;6.45;;;;;;;4.98;100.00;102444.66;4988024;28;20134;-65
2022/12/27 11:08:00;;;;;;;13.00;6.45;;;;;;;5.04;100.00;102444.38;4966125;28;20054;-67
2022/12/27 11:10:30;;;;;;;20.15;7.65;;;;;;;5.14;100.00;102455.22;4986526;28;20143;-65
2022/12/27 11:13:05;;;;;;;11.52;5.68;;;;;;;5.20;100.00;102454.91;4964952;28;20061;-66
2022/12/27 11:15:43;;;;;;;10.75;5.82;;;;;;;5.22;100.00;102450.50;4993047;28;20054;-66
2022/12/27 11:18:16;;;;;;;10.18;4.95;;;;;;;5.24;100.00;102447.81;4976899;28;20050;-64
2022/12/27 11:20:58;;;;;;;14.48;5.85;;;;;;;5.35;100.00;102445.53;4975701;28;20058;-64
2022/12/27 11:23:39;;;;;;;12.85;5.65;;;;;;;5.41;100.00;102447.88;4982823;28;20058;-64
2022/12/27 11:26:06;;;;;;;16.13;6.40;;;;;;;5.37;100.00;102440.25;4973787;28;20050;-64
2022/12/27 11:28:37;;;;;;;14.05;6.35;;;;;;;5.47;100.00;102444.97;4980279;28;20922;-66
2022/12/27 11:31:08;;;;;;;12.52;5.53;;;;;;;5.48;100.00;102438.00;4980023;28;20046;-64
2022/12/27 11:33:39;;;;;;;12.52;5.35;;;;;;;5.53;100.00;102433.44;4987548;28;20050;-65
2022/12/27 11:36:09;;;;;;;13.25;6.07;;;;;;;5.61;100.00;102433.91;4981589;28;20057;-66
2022/12/27 11:38:38;;;;;;;13.50;6.05;;;;;;;5.63;100.00;102423.41;4989698;28;20086;-63
2022/12/27 11:41:16;;;;;;;23.23;5.30;;;;;;;5.69;100.00;102425.72;4977316;28;20058;-65
2022/12/27 11:43:57;;;;;;;10.48;5.28;;;;;;;5.67;100.00;102423.19;4981657;28;20065;-65
2022/12/27 11:46:42;;;;;;;14.52;5.18;;;;;;;5.70;100.00;102420.44;4987894;28;20050;-65
2022/12/27 11:49:27;;;;;;;15.95;5.10;;;;;;;5.76;100.00;102406.25;4983562;28;20065;-64
2022/12/27 11:52:15;;;;;;;11.45;4.32;;;;;;;5.81;100.00;102406.88;4990900;28;20056;-66
2022/12/27 11:55:17;;;;;;;22.30;4.85;;;;;;;5.87;100.00;102401.34;4987216;28;20050;-64
2022/12/27 11:58:26;;;;;;;11.93;4.38;;;;;;;5.98;100.00;102403.47;4985563;28;20046;-66
2022/12/27 12:01:31;;;;;;;10.38;3.80;;;;;;;6.06;100.00;102411.72;4972973;28;20503;-66
2022/12/27 12:04:07;;;;;;;8.38;4.15;;;;;;;6.09;100.00;102406.34;4967244;28;20118;-65
2022/12/27 12:07:01;;;;;;;9.30;3.55;;;;;;;6.23;100.00;102410.84;4971659;28;20038;-66
2022/12/27 12:10:05;;;;;;;12.93;4.03;;;;;;;6.29;100.00;102407.06;4981105;28;20720;-67
2022/12/27 12:12:44;;;;;;;12.85;4.30;;;;;;;6.40;100.00;102391.72;4984280;28;20073;-65
2022/12/27 12:15:40;;;;;;;13.18;3.78;;;;;;;6.45;100.00;102381.03;4970947;28;20057;-64
2022/12/27 12:18:26;;;;;;;11.95;3.78;;;;;;;6.48;100.00;102381.72;4982669;28;20047;-65
2022/12/27 12:21:12;;;;;;;11.02;3.25;;;;;;;6.53;100.00;102374.53;4985716;28;20050;-64
2022/12/27 12:24:16;;;;;;;10.07;3.85;;;;;;;6.69;100.00;102378.91;4985869;28;20058;-64
2022/12/27 12:27:01;;;;;;;11.63;3.63;;;;;;;6.73;100.00;102372.59;4986996;28;20050;-65
2022/12/27 12:30:12;;;;;;;11.00;3.10;;;;;;;6.84;100.00;102366.78;4983233;28;20488;-65
2022/12/27 12:32:57;;;;;;;7.80;3.15;;;;;;;6.89;100.00;102370.84;4984618;28;20152;-66
2022/12/27 12:35:39;;;;;;;8.38;3.25;;;;;;;7.08;100.00;102367.22;4977250;28;20760;-66
2022/12/27 12:38:20;;;;;;;6.70;3.15;;;;;;;7.14;100.00;102374.69;4985692;28;20137;-65
2022/12/27 12:41:13;;;;;;;9.63;2.78;;;;;;;7.16;100.00;102370.25;4977784;28;20136;-65
2022/12/27 12:43:49;;;;;;;7.25;2.75;;;;;;;7.22;100.00;102366.44;4983048;28;20096;-64
2022/12/27 12:46:36;;;;;;;9.35;3.17;;;;;;;7.18;100.00;102368.38;4982025;28;20422;-64
2022/12/27 12:49:31;;;;;;;11.48;3.50;;;;;;;7.12;100.00;102387.84;4980653;28;20058;-65
2022/12/27 12:52:28;;;;;;;6.97;2.53;;;;;;;7.16;100.00;102357.19;4980708;28;20050;-65
2022/12/27 12:55:25;;;;;;;13.15;3.22;;;;;;;7.08;100.00;102355.00;4986266;28;20503;-65
2022/12/27 12:58:14;;;;;;;8.45;3.03;;;;;;;7.03;100.00;102359.63;4979134;28;20050;-64
2022/12/27 13:01:09;;;;;;;8.15;2.75;;;;;;;6.98;100.00;102348.63;4970025;28;20411;-65
2022/12/27 13:04:02;;;;;;;10.07;3.33;;;;;;;6.88;100.00;102350.03;4957433;28;20049;-65
2022/12/27 13:06:50;;;;;;;9.35;3.90;;;;;;;6.88;100.00;102344.81;4986628;28;20182;-65
2022/12/27 13:09:42;;;;;;;8.93;3.30;;;;;;;6.82;100.00;102335.59;4975631;28;20050;-64
2022/12/27 13:12:34;;;;;;;9.05;2.90;;;;;;;6.83;100.00;102333.81;4995685;28;20058;-65
2022/12/27 13:15:19;;;;;;;8.75;2.70;;;;;;;6.84;100.00;102331.13;4979477;28;20061;-64
2022/12/27 13:18:09;;;;;;;7.78;2.78;;;;;;;6.81;100.00;102317.41;4986778;28;20061;-65
2022/12/27 13:20:59;;;;;;;9.55;3.15;;;;;;;6.81;100.00;102320.03;4978191;28;20050;-64
2022/12/27 13:23:51;;;;;;;8.65;3.10;;;;;;;6.82;100.00;102319.09;4987056;28;20050;-65
2022/12/27 13:26:30;;;;;;;6.95;3.65;;;;;;;6.81;100.00;102307.81;4985046;28;20471;-65
2022/12/27 13:28:59;;;;;;;;;;;;;;;6.82;100.00;102303.44;4986562;28;20054;-65
2022/12/27 13:31:44;;;;;;;10.15;3.30;;;;;;;6.82;100.00;102296.47;4975061;28;19926;-65